Time;durP1;ratioP1;P1;durP2;ratioP2;P2;SDS_P1;SDS_P2;PMS_P1;PMS_P2;Temp;Humidity;BMP_temperature;BMP_pressure;BME280_temperature;BME280_humidity;BME280_pressure;Samples;Min_cycle;Max_cycle;Signal;HPM_P1;HPM_P2
2022/11/27 00:00:24;;;;;;;18.67;7.40;;;;;;;4.04;100.00;102442.66;1026990;28;20663;-81
2022/11/27 00:00:57;;;;;;;13.98;5.93;;;;;;;4.10;100.00;102432.53;1019890;28;20304;-82
2022/11/27 00:01:31;;;;;;;11.30;6.65;;;;;;;4.11;100.00;102437.72;1024976;28;21078;-82
2022/11/27 00:02:02;;;;;;;18.38;7.40;;;;;;;4.10;100.00;102437.81;1023673;28;20357;-81
2022/11/27 00:02:34;;;;;;;14.40;7.45;;;;;;;4.24;100.00;102440.09;1024617;28;20301;-81
2022/11/27 00:03:10;;;;;;;22.27;7.13;;;;;;;4.10;100.00;102432.53;1027979;28;20313;-81
2022/11/27 00:03:42;;;;;;;22.52;7.00;;;;;;;4.12;100.00;102425.34;1027682;28;20528;-81
2022/11/27 00:04:14;;;;;;;14.27;6.78;;;;;;;4.11;100.00;102428.94;1032154;28;20297;-81
2022/11/27 00:04:46;;;;;;;17.50;7.55;;;;;;;4.14;100.00;102428.69;1030900;28;20301;-81
2022/11/27 00:05:17;;;;;;;17.52;7.05;;;;;;;4.16;100.00;102432.03;1027011;28;20562;-81
2022/11/27 00:05:56;;;;;;;14.23;6.93;;;;;;;4.10;100.00;102432.53;1026945;28;20441;-81
2022/11/27 00:06:28;;;;;;;14.88;7.15;;;;;;;4.15;100.00;102433.00;1029851;28;20306;-81
2022/11/27 00:07:00;;;;;;;19.13;7.05;;;;;;;3.99;100.00;102431.69;1032063;28;20328;-81
2022/11/27 00:07:32;;;;;;;12.23;6.97;;;;;;;4.00;100.00;102429.88;1032021;28;20783;-81
2022/11/27 00:08:03;;;;;;;13.57;6.65;;;;;;;3.98;100.00;102437.94;1030568;28;20301;-81
2022/11/27 00:08:35;;;;;;;12.45;7.18;;;;;;;3.98;100.00;102437.94;1027013;28;20317;-81
2022/11/27 00:09:10;;;;;;;19.58;8.07;;;;;;;4.15;100.00;102425.91;1022457;28;20646;-81
2022/11/27 00:09:42;;;;;;;12.30;5.95;;;;;;;4.06;100.00;102431.97;1022397;28;20336;-81
2022/11/27 00:10:13;;;;;;;16.40;8.40;;;;;;;3.94;100.00;102433.06;1027932;28;20290;-81
2022/11/27 00:10:44;;;;;;;15.30;6.68;;;;;;;3.99;100.00;102442.22;1032540;28;20335;-81
2022/11/27 00:11:21;;;;;;;13.65;6.57;;;;;;;4.02;100.00;102430.59;1034916;28;20477;-81
2022/11/27 00:11:53;;;;;;;14.75;7.35;;;;;;;3.98;100.00;102435.28;1035562;28;20305;-81
2022/11/27 00:12:24;;;;;;;13.90;7.47;;;;;;;4.02;100.00;102435.84;1026185;28;20381;-81
2022/11/27 00:12:56;;;;;;;16.08;6.90;;;;;;;4.01;100.00;102435.03;1027128;28;20306;-81
2022/11/27 00:13:27;;;;;;;12.52;7.45;;;;;;;4.15;100.00;102425.09;1030880;28;20368;-81
2022/11/27 00:13:59;;;;;;;15.65;7.57;;;;;;;4.07;100.00;102432.81;1032038;28;20425;-81
2022/11/27 00:14:31;;;;;;;13.40;6.88;;;;;;;4.10;100.00;102437.81;1032027;28;20687;-81
2022/11/27 00:15:03;;;;;;;19.02;7.45;;;;;;;4.04;100.00;102434.75;1038899;28;20378;-81
2022/11/27 00:15:34;;;;;;;14.95;6.97;;;;;;;4.13;100.00;102432.28;1038831;28;20379;-81
2022/11/27 00:16:07;;;;;;;14.10;6.43;;;;;;;4.10;100.00;102427.25;1038089;28;21072;-81
2022/11/27 00:16:39;;;;;;;15.13;6.20;;;;;;;4.04;100.00;102437.38;1039821;28;20284;-81
2022/11/27 00:17:10;;;;;;;12.15;6.65;;;;;;;4.03;100.00;102433.09;1034476;28;20805;-81
2022/11/27 00:17:42;;;;;;;16.98;7.22;;;;;;;4.03;100.00;102437.53;1034674;28;20364;-81
2022/11/27 00:18:13;;;;;;;20.60;7.80;;;;;;;4.04;100.00;102433.91;1035340;28;20300;-81
2022/11/27 00:18:45;;;;;;;15.15;6.78;;;;;;;4.03;100.00;102434.88;1033185;28;20376;-81
2022/11/27 00:19:17;;;;;;;20.13;8.48;;;;;;;4.00;100.00;102438.63;1031553;28;20314;-81
2022/11/27 00:19:49;;;;;;;13.70;7.65;;;;;;;4.02;100.00;102433.22;1036433;28;20300;-81
2022/11/27 00:20:20;;;;;;;15.38;6.85;;;;;;;4.09;100.00;102436.16;1031122;28;20304;-81
2022/11/27 00:21:11;;;;;;;15.23;6.75;;;;;;;4.08;100.00;102434.47;1033176;28;20285;-81
2022/11/27 00:21:43;;;;;;;18.33;7.72;;;;;;;3.99;100.00;102426.41;1033278;28;20297;-81
2022/11/27 00:22:14;;;;;;;15.65;7.55;;;;;;;4.08;100.00;102431.84;1037905;28;20288;-81
2022/11/27 00:22:46;;;;;;;17.45;7.63;;;;;;;4.07;100.00;102427.53;1041721;28;20386;-81
2022/11/27 00:23:17;;;;;;;14.55;7.15;;;;;;;4.00;100.00;102427.25;1037223;28;20805;-81
2022/11/27 00:23:50;;;;;;;12.55;7.30;;;;;;;3.97;100.00;102423.09;1030454;28;20297;-81
2022/11/27 00:24:21;;;;;;;14.30;6.15;;;;;;;3.94;100.00;102423.34;1030373;28;20372;-81
2022/11/27 00:24:53;;;;;;;13.85;7.32;;;;;;;3.95;100.00;102425.03;1027535;28;20744;-81
2022/11/27 00:25:24;;;;;;;13.32;8.07;;;;;;;4.01;100.00;102419.19;1031247;28;20312;-81
2022/11/27 00:25:56;;;;;;;16.48;7.47;;;;;;;3.97;100.00;102423.09;1034854;28;20933;-81
2022/11/27 00:26:29;;;;;;;15.27;6.80;;;;;;;4.07;100.00;102422.25;1035183;28;20304;-81
2022/11/27 00:27:08;;;;;;;15.07;6.95;;;;;;;3.95;100.00;102425.03;1030815;28;20388;-81
2022/11/27 00:27:39;;;;;;;11.82;6.47;;;;;;;3.95;100.00;102422.38;1030448;28;20042;-81
2022/11/27 00:28:11;;;;;;;18.50;7.78;;;;;;;3.99;100.00;102415.88;1032172;28;20308;-81
2022/11/27 00:28:42;;;;;;;12.02;7.40;;;;;;;4.03;100.00;102422.53;1036152;28;20390;-81
2022/11/27 00:29:14;;;;;;;11.25;7.38;;;;;;;3.95;100.00;102429.47;1031190;28;20305;-81
2022/11/27 00:29:45;;;;;;;13.70;6.72;;;;;;;4.00;100.00;102419.34;1030397;28;20380;-81
2022/11/27 00:30:17;;;;;;;14.70;6.70;;;;;;;3.97;100.00;102423.09;1030611;28;20813;-81
2022/11/27 00:30:49;;;;;;;11.20;7.72;;;;;;;3.91;100.00;102423.63;1031360;28;20376;-81
2022/11/27 00:31:22;;;;;;;12.77;7.57;;;;;;;3.99;100.00;102426.41;1034975;28;20359;-81
2022/11/27 00:31:55;;;;;;;13.75;7.45;;;;;;;3.90;100.00;102427.22;1035141;28;20636;-81
2022/11/27 00:32:26;;;;;;;12.65;7.03;;;;;;;3.92;100.00;102429.72;1028362;28;20681;-81
2022/11/27 00:32:58;;;;;;;14.60;7.75;;;;;;;3.94;100.00;102428.63;1031438;28;20384;-81
2022/11/27 00:33:30;;;;;;;20.10;7.90;;;;;;;3.97;100.00;102422.25;1035302;28;20297;-81
2022/11/27 00:34:03;;;;;;;29.17;8.18;;;;;;;3.88;100.00;102426.53;1034544;28;20307;-81
2022/11/27 00:34:34;;;;;;;14.35;7.22;;;;;;;3.93;100.00;102421.69;1030483;28;20327;-81
2022/11/27 00:35:06;;;;;;;11.43;7.63;;;;;;;3.97;100.00;102428.34;1031872;28;20309;-81
2022/11/27 00:35:38;;;;;;;13.23;7.63;;;;;;;3.88;100.00;102417.78;1027612;28;20337;-81
2022/11/27 00:36:10;;;;;;;17.52;7.72;;;;;;;3.88;100.00;102423.88;1027350;28;20482;-81
2022/11/27 00:36:42;;;;;;;15.48;8.20;;;;;;;3.87;100.00;102419.59;1026034;28;20298;-81
2022/11/27 00:37:18;;;;;;;10.73;7.43;;;;;;;3.93;100.00;102426.94;1027786;28;20314;-81
2022/11/27 00:37:50;;;;;;;14.10;7.93;;;;;;;3.97;100.00;102423.09;1033669;28;20787;-81
2022/11/27 00:38:21;;;;;;;18.35;8.55;;;;;;;3.89;100.00;102424.72;1029046;28;20333;-81
2022/11/27 00:38:53;;;;;;;16.58;8.00;;;;;;;3.96;100.00;102425.84;1027628;28;20355;-81
2022/11/27 00:39:26;;;;;;;12.82;6.55;;;;;;;3.91;100.00;102422.78;1021907;28;20789;-81
2022/11/27 00:39:57;;;;;;;20.20;8.27;;;;;;;4.01;100.00;102424.47;1022653;28;20457;-81
2022/11/27 00:40:29;;;;;;;13.75;7.80;;;;;;;3.97;100.00;102422.25;1025971;28;20736;-81
2022/11/27 00:41:08;;;;;;;14.02;8.45;;;;;;;3.99;100.00;102425.59;1027538;28;20393;-81
2022/11/27 00:41:40;;;;;;;12.10;6.40;;;;;;;4.01;100.00;102423.63;1034384;28;20297;-81
2022/11/27 00:42:11;;;;;;;12.18;7.43;;;;;;;3.97;100.00;102420.44;1035455;28;20308;-81
2022/11/27 00:42:43;;;;;;;11.77;7.65;;;;;;;3.95;100.00;102419.75;1034388;28;20366;-81
2022/11/27 00:43:15;;;;;;;14.55;7.00;;;;;;;3.99;100.00;102422.94;1034112;28;20415;-81
2022/11/27 00:43:47;;;;;;;18.92;6.95;;;;;;;3.92;100.00;102417.38;1034505;28;20300;-81
2022/11/27 00:44:19;;;;;;;14.52;7.05;;;;;;;4.02;100.00;102426.13;1026144;28;20388;-81
2022/11/27 00:44:50;;;;;;;13.95;7.00;;;;;;;3.93;100.00;102419.06;1022903;28;20313;-81
2022/11/27 00:45:22;;;;;;;17.55;7.35;;;;;;;4.03;100.00;102425.16;1020631;28;20336;-81
2022/11/27 00:45:54;;;;;;;13.80;7.65;;;;;;;3.93;100.00;102426.13;1030245;28;20301;-81
2022/11/27 00:46:28;;;;;;;16.65;7.38;;;;;;;4.02;100.00;102426.13;1029022;28;20357;-81
2022/11/27 00:47:00;;;;;;;17.15;8.07;;;;;;;4.02;100.00;102420.03;1034601;28;20300;-81
2022/11/27 00:47:31;;;;;;;12.98;7.85;;;;;;;3.93;100.00;102426.94;1031086;28;20305;-81
2022/11/27 00:48:03;;;;;;;25.38;8.20;;;;;;;3.82;100.00;102419.13;1030600;28;20695;-81
2022/11/27 00:48:35;;;;;;;16.15;7.80;;;;;;;3.87;100.00;102422.22;1030729;28;20297;-81
2022/11/27 00:49:14;;;;;;;15.13;7.72;;;;;;;3.98;100.00;102422.09;1030090;28;20364;-81
2022/11/27 00:49:45;;;;;;;15.15;7.05;;;;;;;3.91;100.00;102423.63;1033547;28;20325;-81
2022/11/27 00:50:17;;;;;;;15.07;7.20;;;;;;;3.92;100.00;102414.75;1029855;28;20493;-81
2022/11/27 00:50:49;;;;;;;11.43;7.93;;;;;;;3.88;100.00;102426.53;1028816;28;20761;-81
2022/11/27 00:51:22;;;;;;;13.93;8.45;;;;;;;3.92;100.00;102420.00;1026347;28;20377;-81
2022/11/27 00:51:53;;;;;;;14.50;8.32;;;;;;;3.93;100.00;102421.69;1030298;28;20379;-81
2022/11/27 00:52:25;;;;;;;17.70;8.63;;;;;;;3.98;100.00;102419.47;1029554;28;20348;-81
2022/11/27 00:52:58;;;;;;;11.85;8.40;;;;;;;3.81;100.00;102417.47;1029364;28;20298;-81
2022/11/27 00:53:29;;;;;;;17.42;7.28;;;;;;;3.71;100.00;102414.81;1030769;28;20416;-81
2022/11/27 00:54:01;;;;;;;18.55;7.68;;;;;;;3.65;100.00;102423.25;1031421;28;21419;-81
2022/11/27 00:54:33;;;;;;;11.93;7.88;;;;;;;3.65;100.00;102417.13;1030573;28;20309;-81
2022/11/27 00:55:05;;;;;;;20.27;7.85;;;;;;;3.65;100.00;102422.41;1034480;28;20300;-81
2022/11/27 00:55:37;;;;;;;19.73;8.82;;;;;;;3.74;100.00;102421.59;1030489;28;20404;-81
2022/11/27 00:56:13;;;;;;;24.92;7.85;;;;;;;3.76;100.00;102413.56;1031164;28;20376;-81
2022/11/27 00:56:44;;;;;;;16.35;8.00;;;;;;;3.70;100.00;102407.88;1030367;28;20754;-81
2022/11/27 00:57:16;;;;;;;18.95;8.23;;;;;;;3.63;100.00;102408.53;1028734;28;20489;-81
2022/11/27 00:57:47;;;;;;;14.82;7.18;;;;;;;3.75;100.00;102410.09;1031403;28;20487;-81
2022/11/27 00:58:19;;;;;;;15.30;7.72;;;;;;;3.77;100.00;102408.16;1030318;28;20297;-81
2022/11/27 00:58:51;;;;;;;12.40;7.72;;;;;;;3.76;100.00;102413.56;1030612;28;20342;-81
2022/11/27 00:59:23;;;;;;;11.60;7.65;;;;;;;3.75;100.00;102407.47;1030114;28;20400;-81
2022/11/27 00:59:54;;;;;;;25.50;10.20;;;;;;;3.63;100.00;102413.81;1031069;28;20312;-81
2022/11/27 01:00:26;;;;;;;19.95;7.25;;;;;;;3.77;100.00;102410.78;1025998;28;20397;-81
2022/11/27 01:01:03;;;;;;;14.32;8.40;;;;;;;3.70;100.00;102409.66;1026507;28;20557;-81
2022/11/27 01:01:37;;;;;;;15.65;8.32;;;;;;;3.78;100.00;102399.28;1030839;28;20384;-81
2022/11/27 01:02:09;;;;;;;16.25;7.65;;;;;;;3.84;100.00;102406.69;1036866;28;20293;-81
2022/11/27 01:02:41;;;;;;;19.13;8.02;;;;;;;3.87;100.00;102395.88;1036767;28;20415;-81
2022/11/27 01:03:13;;;;;;;13.85;8.18;;;;;;;3.72;100.00;102402.47;1039375;28;20782;-81
2022/11/27 01:03:45;;;;;;;19.77;7.90;;;;;;;3.67;100.00;102404.66;1043440;28;20427;-81
2022/11/27 01:04:16;;;;;;;18.88;9.10;;;;;;;3.71;100.00;102395.53;1028715;28;20291;-81
2022/11/27 01:04:48;;;;;;;16.92;8.18;;;;;;;3.80;100.00;102394.72;1027578;28;20385;-81
2022/11/27 01:05:20;;;;;;;16.52;8.05;;;;;;;3.74;100.00;102389.97;1030561;28;20387;-81
2022/11/27 01:05:51;;;;;;;12.05;7.60;;;;;;;3.77;100.00;102392.34;1029246;28;20297;-81
2022/11/27 01:06:24;;;;;;;12.52;7.50;;;;;;;3.80;100.00;102392.06;1027698;28;20356;-81
2022/11/27 01:06:55;;;;;;;20.48;8.35;;;;;;;3.88;100.00;102394.91;1029870;28;20809;-81
2022/11/27 01:07:27;;;;;;;12.07;7.70;;;;;;;3.75;100.00;102386.38;1028000;28;20309;-81
2022/11/27 01:07:58;;;;;;;17.38;8.07;;;;;;;3.88;100.00;102394.91;1031070;28;20301;-81
2022/11/27 01:08:30;;;;;;;21.98;8.95;;;;;;;3.85;100.00;102389.06;1028007;28;20380;-81
2022/11/27 01:09:02;;;;;;;11.23;7.28;;;;;;;3.91;100.00;102392.00;1027363;28;20299;-81
2022/11/27 01:09:34;;;;;;;19.95;9.68;;;;;;;3.93;100.00;102391.84;1031937;28;20728;-81
2022/11/27 01:10:06;;;;;;;14.75;8.45;;;;;;;3.92;100.00;102392.81;1030103;28;20440;-81
2022/11/27 01:10:38;;;;;;;17.70;7.70;;;;;;;3.97;100.00;102390.59;1025191;28;20441;-81
2022/11/27 01:11:15;;;;;;;14.82;7.22;;;;;;;3.95;100.00;102392.56;1028227;28;20464;-81
2022/11/27 01:11:46;;;;;;;16.10;7.90;;;;;;;3.86;100.00;102399.47;1028322;28;20334;-81
2022/11/27 01:12:18;;;;;;;17.45;7.53;;;;;;;3.78;100.00;102394.00;1027197;28;20295;-81
2022/11/27 01:12:49;;;;;;;20.70;9.15;;;;;;;3.82;100.00;102395.41;1028449;28;20301;-81
2022/11/27 01:13:33;;;;;;;18.48;7.45;;;;;;;3.96;100.00;102397.69;1035139;28;20778;-81
2022/11/27 01:14:07;;;;;;;16.45;8.30;;;;;;;3.95;100.00;102393.38;1040084;28;20324;-81
2022/11/27 01:14:39;;;;;;;12.93;8.15;;;;;;;3.80;100.00;102394.72;1034505;28;20312;-81
2022/11/27 01:15:11;;;;;;;14.55;7.30;;;;;;;3.75;100.00;102391.66;1035383;28;20491;-81
2022/11/27 01:15:43;;;;;;;17.98;7.05;;;;;;;3.84;100.00;102396.13;1035504;28;20387;-81
2022/11/27 01:16:17;;;;;;;19.67;8.88;;;;;;;3.87;100.00;102393.22;1034207;28;20709;-81
2022/11/27 01:16:49;;;;;;;13.18;7.63;;;;;;;3.85;100.00;102389.91;1026950;28;20433;-81
2022/11/27 01:17:20;;;;;;;16.77;8.25;;;;;;;3.76;100.00;102401.22;1028401;28;20309;-81
2022/11/27 01:17:52;;;;;;;17.75;8.18;;;;;;;3.84;100.00;102396.13;1028503;28;20377;-81
2022/11/27 01:18:23;;;;;;;14.35;9.15;;;;;;;3.88;100.00;102396.69;1027650;28;20758;-81
2022/11/27 01:18:59;;;;;;;19.70;8.68;;;;;;;3.92;100.00;102396.28;1027807;28;20847;-81
2022/11/27 01:19:30;;;;;;;14.98;7.97;;;;;;;3.90;100.00;102394.75;1028298;28;20286;-81
2022/11/27 01:20:02;;;;;;;13.48;7.70;;;;;;;3.92;100.00;102388.38;1032604;28;20305;-81
2022/11/27 01:20:38;;;;;;;17.85;7.82;;;;;;;3.92;100.00;102393.66;1033048;28;20692;-81
2022/11/27 01:21:10;;;;;;;17.58;8.18;;;;;;;3.92;100.00;102393.66;1031691;28;20396;-81
2022/11/27 01:21:42;;;;;;;24.00;8.80;;;;;;;3.88;100.00;102389.63;1027411;28;20370;-81
2022/11/27 01:22:14;;;;;;;16.98;8.48;;;;;;;3.93;100.00;102390.06;1030356;28;20388;-81
2022/11/27 01:22:45;;;;;;;15.25;8.90;;;;;;;3.96;100.00;102392.41;1027923;28;20297;-81
2022/11/27 01:23:17;;;;;;;14.07;8.25;;;;;;;3.89;100.00;102399.19;1028557;28;20337;-81
2022/11/27 01:23:49;;;;;;;13.02;7.30;;;;;;;3.81;100.00;102385.84;1030963;28;20313;-80
2022/11/27 01:24:20;;;;;;;13.70;7.63;;;;;;;3.86;100.00;102386.28;1031176;28;20407;-81
2022/11/27 01:24:52;;;;;;;17.48;7.50;;;;;;;3.78;100.00;102391.38;1032095;28;20390;-81
2022/11/27 01:25:23;;;;;;;16.45;7.53;;;;;;;3.67;100.00;102388.84;1035909;28;20304;-81
2022/11/27 01:26:01;;;;;;;17.08;8.43;;;;;;;3.81;100.00;102390.28;1036155;28;20659;-81
2022/11/27 01:26:32;;;;;;;18.95;8.68;;;;;;;3.85;100.00;102387.25;1033645;28;20319;-81
2022/11/27 01:27:04;;;;;;;20.15;7.97;;;;;;;3.75;100.00;102391.66;1031709;28;20708;-81
2022/11/27 01:27:36;;;;;;;15.77;7.88;;;;;;;3.74;100.00;102395.25;1028095;28;20293;-81
2022/11/27 01:28:07;;;;;;;17.55;9.43;;;;;;;3.81;100.00;102392.91;1025484;28;20298;-81
2022/11/27 01:28:39;;;;;;;15.10;8.77;;;;;;;3.85;100.00;102395.16;1027715;28;20330;-81
2022/11/27 01:29:11;;;;;;;18.75;8.15;;;;;;;3.82;100.00;102392.78;1028198;28;20313;-81
2022/11/27 01:29:42;;;;;;;10.27;7.55;;;;;;;3.80;100.00;102386.81;1035233;28;20308;-81
2022/11/27 01:30:14;;;;;;;22.60;8.65;;;;;;;3.81;100.00;102400.81;1036028;28;20427;-81
2022/11/27 01:30:45;;;;;;;13.10;7.78;;;;;;;3.91;100.00;102392.00;1035361;28;20656;-81
2022/11/27 01:31:20;;;;;;;18.27;8.30;;;;;;;3.92;100.00;102393.66;1035579;28;20292;-81
2022/11/27 01:31:51;;;;;;;13.48;8.27;;;;;;;3.95;100.00;102397.81;1034528;28;20293;-81
2022/11/27 01:32:23;;;;;;;16.00;7.72;;;;;;;4.02;100.00;102396.31;1034888;28;20431;-81
2022/11/27 01:32:54;;;;;;;17.25;8.13;;;;;;;3.91;100.00;102397.25;1034938;28;20398;-81
2022/11/27 01:33:26;;;;;;;12.60;6.80;;;;;;;3.89;100.00;102393.94;1036067;28;20304;-81
2022/11/27 01:34:00;;;;;;;17.63;8.82;;;;;;;3.90;100.00;102397.41;1035159;28;20378;-81
2022/11/27 01:34:32;;;;;;;15.48;7.28;;;;;;;3.97;100.00;102396.72;1031018;28;20870;-81
2022/11/27 01:35:04;;;;;;;18.15;8.23;;;;;;;3.98;100.00;102393.09;1027271;28;20364;-81
2022/11/27 01:35:35;;;;;;;16.67;8.10;;;;;;;4.03;100.00;102396.16;1028074;28;20352;-81
2022/11/27 01:36:09;;;;;;;14.15;6.95;;;;;;;3.88;100.00;102394.91;1027165;28;20333;-81
2022/11/27 01:36:40;;;;;;;12.90;8.05;;;;;;;3.81;100.00;102390.28;1031019;28;20479;-81
2022/11/27 01:37:12;;;;;;;14.63;7.53;;;;;;;3.81;100.00;102385.00;1031465;28;20301;-81
2022/11/27 01:37:43;;;;;;;16.45;8.15;;;;;;;3.86;100.00;102391.56;1027838;28;20384;-81
2022/11/27 01:38:15;;;;;;;16.45;8.63;;;;;;;3.86;100.00;102391.56;1027061;28;20341;-81
2022/11/27 01:38:47;;;;;;;10.00;6.65;;;;;;;3.86;100.00;102393.38;1023781;28;20374;-80
2022/11/27 01:39:19;;;;;;;16.08;8.45;;;;;;;3.78;100.00;102386.09;1024289;28;20315;-81
2022/11/27 01:39:51;;;;;;;19.05;8.70;;;;;;;3.81;100.00;102380.56;1023827;28;20311;-81
2022/11/27 01:40:23;;;;;;;20.45;7.70;;;;;;;3.84;100.00;102379.50;1028224;28;20388;-81
2022/11/27 01:41:18;;;;;;;11.43;7.30;;;;;;;3.94;100.00;102382.97;1031871;28;20363;-81
2022/11/27 01:41:50;;;;;;;12.82;7.57;;;;;;;3.87;100.00;102373.94;1041358;28;20417;-81
2022/11/27 01:42:21;;;;;;;14.48;7.25;;;;;;;3.87;100.00;102380.06;1030660;28;20384;-81
2022/11/27 01:42:52;;;;;;;14.80;6.63;;;;;;;3.88;100.00;102371.19;1035340;28;20356;-81
2022/11/27 01:43:45;;;;;;;15.52;7.72;;;;;;;3.85;100.00;102378.53;1030970;28;20392;-81
2022/11/27 01:44:23;;;;;;;14.25;7.47;;;;;;;3.83;100.00;102373.34;1034253;28;20394;-81
2022/11/27 01:44:55;;;;;;;16.80;6.95;;;;;;;3.86;100.00;102367.00;1034972;28;20311;-81
2022/11/27 01:45:27;;;;;;;16.33;7.28;;;;;;;3.86;100.00;102373.13;1039804;28;20288;-81
2022/11/27 01:45:59;;;;;;;17.85;7.40;;;;;;;3.84;100.00;102375.06;1038967;28;20389;-81
2022/11/27 01:46:39;;;;;;;17.63;7.72;;;;;;;3.87;100.00;102368.69;1035395;28;20789;-81
2022/11/27 01:47:13;;;;;;;21.65;8.00;;;;;;;3.97;100.00;102361.63;1031946;28;20302;-81
2022/11/27 01:47:55;;;;;;;13.85;6.53;;;;;;;3.95;100.00;102372.28;1035490;28;20149;-81
2022/11/27 01:48:26;;;;;;;22.02;7.40;;;;;;;4.00;100.00;102370.06;1035132;28;20324;-81
2022/11/27 01:49:22;;;;;;;12.50;7.53;;;;;;;3.98;100.00;102358.84;1035165;28;20959;-81
2022/11/27 01:49:55;;;;;;;16.10;7.30;;;;;;;3.92;100.00;102356.75;1033330;28;20296;-81
2022/11/27 01:50:37;;;;;;;17.25;7.32;;;;;;;3.86;100.00;102357.31;1029057;28;20298;-81
2022/11/27 01:51:09;;;;;;;12.75;6.97;;;;;;;3.87;100.00;102358.97;1035649;28;20300;-81
2022/11/27 01:51:44;;;;;;;15.27;7.55;;;;;;;3.87;100.00;102353.69;1035085;28;20384;-81
2022/11/27 01:52:20;;;;;;;17.90;7.00;;;;;;;3.97;100.00;102353.69;1043983;28;20300;-81
2022/11/27 01:52:58;;;;;;;11.20;8.05;;;;;;;3.93;100.00;102353.16;1038465;28;20292;-81
2022/11/27 01:53:29;;;;;;;14.32;7.00;;;;;;;3.96;100.00;102350.22;1031100;28;20771;-81
2022/11/27 01:54:01;;;;;;;13.93;6.95;;;;;;;3.97;100.00;102354.53;1030964;28;21294;-81
2022/11/27 01:54:40;;;;;;;11.55;6.05;;;;;;;3.95;100.00;102356.47;1032477;28;20711;-81
2022/11/27 01:55:20;;;;;;;18.17;8.35;;;;;;;3.97;100.00;102346.63;1037136;28;20331;-81
2022/11/27 01:55:55;;;;;;;10.13;5.70;;;;;;;3.97;100.00;102354.53;1035489;28;20304;-81
2022/11/27 01:56:27;;;;;;;13.50;6.00;;;;;;;3.90;100.00;102350.78;1038170;28;20291;-81
2022/11/27 01:57:02;;;;;;;22.55;7.65;;;;;;;4.07;100.00;102349.28;1039042;28;20381;-81
2022/11/27 01:57:37;;;;;;;19.55;7.65;;;;;;;3.98;100.00;102353.56;1030710;28;20400;-81
2022/11/27 01:58:13;;;;;;;11.93;7.45;;;;;;;4.00;100.00;102351.63;1028241;28;20819;-80
2022/11/27 01:58:45;;;;;;;13.57;6.70;;;;;;;3.93;100.00;102365.50;1027488;28;20302;-81
2022/11/27 01:59:17;;;;;;;16.17;6.65;;;;;;;3.97;100.00;102359.81;1026663;28;20850;-81
2022/11/27 01:59:50;;;;;;;12.35;6.30;;;;;;;4.02;100.00;102362.88;1026671;28;20297;-81
2022/11/27 02:00:22;;;;;;;13.20;6.97;;;;;;;3.97;100.00;102365.06;1030232;28;20388;-81
2022/11/27 02:00:53;;;;;;;16.92;6.07;;;;;;;3.98;100.00;102361.47;1028815;28;20317;-81
2022/11/27 02:01:25;;;;;;;12.98;5.57;;;;;;;4.07;100.00;102361.63;1032252;28;20398;-81
2022/11/27 02:01:56;;;;;;;15.82;6.60;;;;;;;3.93;100.00;102363.69;1034546;28;20311;-81
2022/11/27 02:02:28;;;;;;;15.68;7.25;;;;;;;4.00;100.00;102359.53;1032081;28;20293;-81
2022/11/27 02:03:01;;;;;;;16.90;7.78;;;;;;;3.96;100.00;102363.41;1030171;28;20812;-81
2022/11/27 02:03:33;;;;;;;10.82;6.18;;;;;;;3.83;100.00;102365.44;1035029;28;20300;-81
2022/11/27 02:04:04;;;;;;;14.27;6.25;;;;;;;3.88;100.00;102362.44;1035562;28;20288;-81
2022/11/27 02:04:36;;;;;;;15.00;6.65;;;;;;;3.82;100.00;102361.16;1034368;28;20358;-81
2022/11/27 02:05:09;;;;;;;14.18;6.97;;;;;;;3.94;100.00;102361.88;1034586;28;20319;-81
2022/11/27 02:05:41;;;;;;;16.52;6.50;;;;;;;3.93;100.00;102368.97;1035532;28;20662;-81
2022/11/27 02:06:13;;;;;;;18.05;6.82;;;;;;;3.90;100.00;102358.69;1030686;28;20376;-81
2022/11/27 02:06:45;;;;;;;16.05;7.50;;;;;;;3.82;100.00;102365.59;1028500;28;20298;-81
2022/11/27 02:07:16;;;;;;;16.48;7.03;;;;;;;3.82;100.00;102363.78;1031558;28;20325;-81
2022/11/27 02:07:48;;;;;;;22.90;7.78;;;;;;;3.94;100.00;102360.09;1032048;28;20304;-80
2022/11/27 02:08:20;;;;;;;11.70;6.78;;;;;;;3.79;100.00;102350.88;1028816;28;20293;-81
2022/11/27 02:08:52;;;;;;;11.55;6.25;;;;;;;3.90;100.00;102357.84;1031057;28;20308;-81
2022/11/27 02:09:25;;;;;;;15.07;7.20;;;;;;;3.90;100.00;102356.06;1028658;28;20859;-81
2022/11/27 02:09:57;;;;;;;13.32;6.65;;;;;;;3.98;100.00;102350.94;1037553;28;20292;-81
2022/11/27 02:10:37;;;;;;;16.27;7.47;;;;;;;4.03;100.00;102353.16;1039208;28;20360;-81
2022/11/27 02:11:16;;;;;;;16.77;6.40;;;;;;;3.99;100.00;102354.41;1032046;28;20300;-81
2022/11/27 02:11:56;;;;;;;14.55;6.10;;;;;;;4.08;100.00;102344.81;1025847;28;20501;-81
2022/11/27 02:12:39;;;;;;;10.23;6.60;;;;;;;4.04;100.00;102342.47;1028576;28;20294;-81
2022/11/27 02:13:15;;;;;;;16.50;6.47;;;;;;;4.12;100.00;102340.97;1035418;28;20084;-81
2022/11/27 02:14:10;;;;;;;14.10;6.63;;;;;;;3.95;100.00;102348.56;1036797;28;20327;-81
2022/11/27 02:15:04;;;;;;;13.82;6.82;;;;;;;3.98;100.00;102339.56;1033325;28;20382;-81
2022/11/27 02:15:42;;;;;;;9.90;5.95;;;;;;;4.00;100.00;102333.16;1033496;28;20762;-81
2022/11/27 02:16:39;;;;;;;12.90;5.65;;;;;;;4.08;100.00;102336.91;1028773;28;20298;-81
2022/11/27 02:17:26;;;;;;;20.58;6.18;;;;;;;4.03;100.00;102332.06;1032750;28;20299;-81
2022/11/27 02:18:16;;;;;;;11.50;4.95;;;;;;;3.99;100.00;102326.22;1033401;28;20368;-81
2022/11/27 02:19:13;;;;;;;12.85;5.03;;;;;;;4.02;100.00;102319.84;1032039;28;20297;-81
2022/11/27 02:20:05;;;;;;;7.85;4.63;;;;;;;4.10;100.00;102316.53;1029360;28;20844;-81
2022/11/27 02:20:46;;;;;;;13.18;4.95;;;;;;;4.09;100.00;102314.84;1033220;28;20379;-81
2022/11/27 02:21:19;;;;;;;;;;;;;;;4.10;100.00;102309.44;1026284;28;20385;-81
2022/11/27 02:22:02;;;;;;;15.95;4.72;;;;;;;4.03;100.00;102305.69;1030828;28;19925;-81
2022/11/27 02:23:01;;;;;;;15.23;6.10;;;;;;;4.09;100.00;102309.56;1028780;28;20309;-81
2022/11/27 02:23:44;;;;;;;12.88;5.20;;;;;;;4.07;100.00;102300.97;1026368;28;20393;-81
2022/11/27 02:24:37;;;;;;;19.25;5.70;;;;;;;4.10;100.00;102295.44;1037329;28;20355;-81
2022/11/27 02:25:15;;;;;;;13.27;4.78;;;;;;;4.07;100.00;102295.69;1039358;28;20845;-81
2022/11/27 02:26:12;;;;;;;12.32;4.70;;;;;;;4.03;100.00;102300.41;1033473;28;20332;-81
2022/11/27 02:27:02;;;;;;;17.38;5.82;;;;;;;4.05;100.00;102287.94;1031576;28;20784;-81
2022/11/27 02:27:46;;;;;;;20.83;5.95;;;;;;;4.11;100.00;102291.81;1037196;28;20364;-81
2022/11/27 02:28:22;;;;;;;8.38;4.80;;;;;;;4.11;100.00;102283.91;1035665;28;20846;-81
2022/11/27 02:29:02;;;;;;;23.35;7.88;;;;;;;4.23;100.00;102282.81;1035224;28;20401;-81
2022/11/27 02:29:35;;;;;;;15.52;7.03;;;;;;;4.15;100.00;102287.97;1035568;28;20322;-81
2022/11/27 02:30:07;;;;;;;9.75;5.43;;;;;;;4.14;100.00;102286.28;1033247;28;20173;-81
2022/11/27 02:30:46;;;;;;;16.85;7.57;;;;;;;4.22;100.00;102284.63;1035743;28;20320;-81
2022/11/27 02:31:21;;;;;;;11.98;5.63;;;;;;;4.21;100.00;102287.41;1038845;28;21069;-81
2022/11/27 02:32:00;;;;;;;8.25;4.30;;;;;;;4.15;100.00;102288.78;1035002;28;20339;-81
2022/11/27 02:32:39;;;;;;;12.13;5.38;;;;;;;4.14;100.00;102286.28;1033926;28;20798;-81
2022/11/27 02:33:12;;;;;;;12.43;6.07;;;;;;;4.09;100.00;102280.56;1030957;28;20662;-81
2022/11/27 02:33:49;;;;;;;13.65;6.82;;;;;;;4.14;100.00;102289.75;1033928;28;20788;-81
2022/11/27 02:34:24;;;;;;;9.90;4.63;;;;;;;4.14;100.00;102287.13;1033468;28;20300;-81
2022/11/27 02:35:03;;;;;;;13.90;5.72;;;;;;;4.13;100.00;102282.00;1037025;28;20298;-81
2022/11/27 02:35:47;;;;;;;15.00;5.40;;;;;;;4.02;100.00;102289.03;1031925;28;20444;-81
2022/11/27 02:36:22;;;;;;;14.05;5.60;;;;;;;4.03;100.00;102288.06;1037468;28;20469;-81
2022/11/27 02:37:01;;;;;;;14.23;5.50;;;;;;;4.02;100.00;102286.41;1039244;28;20666;-81
2022/11/27 02:37:38;;;;;;;12.30;4.70;;;;;;;4.09;100.00;102284.03;1030746;28;21578;-81